Time;durP1;ratioP1;P1;durP2;ratioP2;P2;SDS_P1;SDS_P2;PMS_P1;PMS_P2;Temp;Humidity;BMP_temperature;BMP_pressure;BME280_temperature;BME280_humidity;BME280_pressure;Samples;Min_cycle;Max_cycle;Signal;HPM_P1;HPM_P2
2022/07/03 00:01:13;;;;;;;4.75;3.33;;;18.80;99.90;;;;;;6296763;28;20052;-73
2022/07/03 00:04:18;;;;;;;4.35;2.42;;;18.70;99.90;;;;;;6298943;28;20036;-73
2022/07/03 00:07:20;;;;;;;6.53;3.33;;;18.80;99.90;;;;;;6297571;28;20048;-73
2022/07/03 00:10:22;;;;;;;3.75;1.77;;;18.90;99.90;;;;;;6293202;28;20048;-73
2022/07/03 00:13:24;;;;;;;2.00;1.15;;;18.90;99.90;;;;;;6298731;28;20145;-73
2022/07/03 00:16:26;;;;;;;4.13;1.50;;;18.80;99.90;;;;;;6297199;28;20052;-73
2022/07/03 00:19:29;;;;;;;6.13;3.13;;;18.90;99.90;;;;;;6297089;28;20060;-73
2022/07/03 00:22:37;;;;;;;5.70;3.47;;;19.20;99.90;;;;;;6298511;28;20051;-73
2022/07/03 00:25:41;;;;;;;4.57;3.20;;;18.90;99.90;;;;;;6296601;28;20063;-73
2022/07/03 00:28:46;;;;;;;8.18;3.75;;;18.70;99.90;;;;;;6296874;28;20071;-73
2022/07/03 00:31:48;;;;;;;5.75;3.85;;;18.50;99.90;;;;;;6297221;28;20055;-73
2022/07/03 00:34:52;;;;;;;5.97;3.60;;;18.30;99.90;;;;;;6297900;28;20045;-73
2022/07/03 00:37:55;;;;;;;5.40;4.25;;;18.10;99.90;;;;;;6296825;28;20538;-73
2022/07/03 00:40:57;;;;;;;5.70;3.92;;;18.10;99.90;;;;;;6275510;28;20049;-73
2022/07/03 00:43:59;;;;;;;5.13;3.58;;;18.00;99.90;;;;;;6272092;28;20045;-73
2022/07/03 00:47:04;;;;;;;3.60;3.25;;;17.90;99.90;;;;;;6272717;28;20037;-73
2022/07/03 00:50:09;;;;;;;5.15;3.40;;;17.90;99.90;;;;;;6273295;28;20051;-73
2022/07/03 00:53:13;;;;;;;8.77;4.20;;;17.90;99.90;;;;;;6271675;28;20052;-73
2022/07/03 00:56:17;;;;;;;6.05;3.35;;;17.80;99.90;;;;;;6272754;28;20067;-73
2022/07/03 00:59:19;;;;;;;4.03;3.20;;;17.80;99.90;;;;;;6272801;28;20056;-73
2022/07/03 01:02:32;;;;;;;4.80;3.40;;;17.80;99.90;;;;;;6294187;28;20048;-73
2022/07/03 01:05:39;;;;;;;5.32;4.30;;;17.60;99.90;;;;;;6296271;28;20486;-73
2022/07/03 01:08:44;;;;;;;6.30;3.80;;;17.60;99.90;;;;;;6291783;28;20045;-73
2022/07/03 01:11:54;;;;;;;7.50;4.47;;;17.50;99.90;;;;;;6271415;28;20049;-74
2022/07/03 01:15:06;;;;;;;5.65;4.68;;;17.50;99.90;;;;;;6270835;28;20057;-73
2022/07/03 01:18:30;;;;;;;7.82;4.68;;;17.40;99.90;;;;;;6283155;28;20049;-73
2022/07/03 01:21:36;;;;;;;6.75;4.50;;;17.40;99.90;;;;;;6295494;28;20127;-73
2022/07/03 01:24:48;;;;;;;7.03;4.43;;;17.30;99.90;;;;;;6295581;28;20414;-73
2022/07/03 01:28:03;;;;;;;6.13;4.30;;;17.30;99.90;;;;;;6296255;28;20087;-73
2022/07/03 01:31:07;;;;;;;8.25;4.65;;;17.10;99.90;;;;;;6295674;28;20052;-73
2022/07/03 01:34:14;;;;;;;7.20;4.63;;;17.10;99.90;;;;;;6295199;28;20053;-72
2022/07/03 01:37:22;;;;;;;6.70;5.38;;;17.10;99.90;;;;;;6294902;28;20093;-73
2022/07/03 01:40:27;;;;;;;6.25;4.50;;;17.00;99.90;;;;;;6296988;28;20052;-72
2022/07/03 01:43:32;;;;;;;5.72;4.68;;;17.00;99.90;;;;;;6296387;28;20386;-73
2022/07/03 01:46:34;;;;;;;4.75;4.25;;;17.00;99.90;;;;;;6295193;28;20414;-72
2022/07/03 01:49:37;;;;;;;6.55;4.63;;;16.90;99.90;;;;;;6296453;28;20048;-72
2022/07/03 01:52:42;;;;;;;5.63;4.10;;;16.90;99.90;;;;;;6296376;28;20040;-73
2022/07/03 01:55:44;;;;;;;5.75;4.93;;;16.90;99.90;;;;;;6296760;28;20044;-73
2022/07/03 01:58:48;;;;;;;6.10;4.25;;;16.90;99.90;;;;;;6295261;28;20058;-73
2022/07/03 02:01:57;;;;;;;6.93;4.85;;;16.90;99.90;;;;;;6296248;28;20044;-73
2022/07/03 02:05:01;;;;;;;5.53;4.38;;;16.90;99.90;;;;;;6296248;28;20500;-73
2022/07/03 02:08:16;;;;;;;7.55;4.78;;;16.90;99.90;;;;;;6296292;28;20052;-73
2022/07/03 02:11:20;;;;;;;6.63;5.60;;;16.80;99.90;;;;;;6295973;28;20079;-72
2022/07/03 02:14:26;;;;;;;7.97;6.40;;;16.80;99.90;;;;;;6296256;28;20041;-73
2022/07/03 02:17:30;;;;;;;7.13;6.22;;;16.80;99.90;;;;;;6296430;28;20048;-73
2022/07/03 02:20:37;;;;;;;9.55;5.35;;;16.80;99.90;;;;;;6295733;28;20048;-72
2022/07/03 02:23:50;;;;;;;8.38;6.57;;;16.80;99.90;;;;;;6295880;28;20049;-72
2022/07/03 02:26:56;;;;;;;7.70;6.00;;;16.80;99.90;;;;;;6295873;28;20048;-73
2022/07/03 02:30:04;;;;;;;9.13;6.40;;;16.70;99.90;;;;;;6294768;28;20130;-73
2022/07/03 02:33:09;;;;;;;6.78;6.00;;;16.70;99.90;;;;;;6296184;28;20051;-73
2022/07/03 02:36:15;;;;;;;11.43;7.07;;;16.60;99.90;;;;;;6294869;28;20056;-72
2022/07/03 02:39:25;;;;;;;8.90;7.15;;;16.60;99.90;;;;;;6297410;28;20045;-72
2022/07/03 02:42:33;;;;;;;9.00;7.53;;;16.50;99.90;;;;;;6300296;28;20044;-73
2022/07/03 02:45:44;;;;;;;8.30;7.32;;;16.50;99.90;;;;;;6299219;28;20049;-73
2022/07/03 02:48:48;;;;;;;9.55;7.13;;;16.50;99.90;;;;;;6300209;28;20060;-72
2022/07/03 02:51:58;;;;;;;7.88;7.07;;;16.40;99.90;;;;;;6299556;28;20497;-72
2022/07/03 02:55:08;;;;;;;8.43;7.45;;;16.40;99.90;;;;;;6300391;28;20041;-73
2022/07/03 02:58:41;;;;;;;9.82;7.50;;;16.30;99.90;;;;;;6300049;28;20463;-72
2022/07/03 03:01:49;;;;;;;11.02;9.15;;;16.30;99.90;;;;;;6262525;28;20045;-72
2022/07/03 03:04:59;;;;;;;12.05;8.43;;;16.30;99.90;;;;;;6273820;28;20052;-72
2022/07/03 03:08:12;;;;;;;10.07;9.20;;;16.30;99.90;;;;;;6296930;28;20098;-72
2022/07/03 03:11:24;;;;;;;11.63;9.23;;;16.30;99.90;;;;;;6298462;28;20056;-72
2022/07/03 03:14:34;;;;;;;10.10;9.00;;;16.30;99.90;;;;;;6300010;28;20528;-72
2022/07/03 03:17:43;;;;;;;10.52;8.27;;;16.30;99.90;;;;;;6299952;28;20134;-72
2022/07/03 03:20:49;;;;;;;9.93;9.02;;;16.20;99.90;;;;;;6299975;28;20059;-72
2022/07/03 03:23:52;;;;;;;10.10;9.05;;;16.20;99.90;;;;;;6299406;28;20528;-73
2022/07/03 03:26:55;;;;;;;10.23;9.23;;;16.20;99.90;;;;;;6299862;28;20052;-72
2022/07/03 03:29:57;;;;;;;10.05;8.80;;;16.20;99.90;;;;;;6299566;28;20052;-72
2022/07/03 03:33:00;;;;;;;10.13;9.23;;;16.20;99.90;;;;;;6299224;28;20552;-72
2022/07/03 03:36:02;;;;;;;11.93;9.75;;;16.20;99.90;;;;;;6284005;28;20053;-73
2022/07/03 03:39:04;;;;;;;12.48;10.95;;;16.20;99.90;;;;;;6274380;28;20045;-73
2022/07/03 03:42:08;;;;;;;12.43;9.43;;;16.20;99.90;;;;;;6273029;28;20170;-73
2022/07/03 03:45:11;;;;;;;10.70;9.50;;;16.20;99.90;;;;;;6273434;28;20055;-73
2022/07/03 03:48:14;;;;;;;10.88;9.80;;;16.20;99.90;;;;;;6274258;28;20049;-73
2022/07/03 03:51:16;;;;;;;13.70;9.57;;;16.20;99.90;;;;;;6286585;28;20059;-73
2022/07/03 03:54:18;;;;;;;11.10;9.77;;;16.30;99.90;;;;;;6297690;28;20183;-73
2022/07/03 03:57:22;;;;;;;11.35;10.15;;;16.40;99.90;;;;;;6299141;28;20049;-74
2022/07/03 04:00:23;;;;;;;;;;;16.50;99.90;;;;;;6297969;28;20044;-73
2022/07/03 04:03:28;;;;;;;11.48;10.48;;;16.50;99.90;;;;;;6298895;28;19920;-73
2022/07/03 04:06:30;;;;;;;11.20;10.07;;;16.60;99.90;;;;;;6276256;28;20057;-73
2022/07/03 04:09:32;;;;;;;11.52;10.35;;;16.60;99.90;;;;;;6297551;28;20044;-73
2022/07/03 04:12:34;;;;;;;13.30;11.95;;;16.60;99.90;;;;;;6298758;28;20059;-73
2022/07/03 04:15:36;;;;;;;11.98;9.80;;;16.70;99.90;;;;;;6298336;28;20493;-73
2022/07/03 04:18:39;;;;;;;13.43;10.10;;;16.70;99.90;;;;;;6296516;28;20284;-73
2022/07/03 04:21:41;;;;;;;10.73;9.70;;;16.70;99.90;;;;;;6298491;28;20041;-73
2022/07/03 04:24:43;;;;;;;2.33;1.63;;;16.70;99.90;;;;;;6297825;28;20501;-73
2022/07/03 04:27:45;;;;;;;7.88;6.38;;;17.00;99.90;;;;;;6298334;28;20047;-74
2022/07/03 04:30:47;;;;;;;7.05;6.43;;;17.70;99.90;;;;;;6298127;28;20044;-73
2022/07/03 04:33:50;;;;;;;7.93;6.82;;;18.20;99.90;;;;;;6288038;28;20111;-73
2022/07/03 04:36:52;;;;;;;5.88;5.35;;;18.50;99.90;;;;;;6272972;28;20486;-73
2022/07/03 04:39:54;;;;;;;5.35;3.45;;;18.30;99.90;;;;;;6273195;28;20041;-70
2022/07/03 04:42:56;;;;;;;7.22;6.53;;;18.10;99.90;;;;;;6291138;28;20048;-71
2022/07/03 04:45:58;;;;;;;9.02;7.97;;;18.00;99.90;;;;;;6296644;28;20413;-72
2022/07/03 04:49:01;;;;;;;9.02;7.90;;;17.70;99.90;;;;;;6297109;28;20051;-72
2022/07/03 04:52:03;;;;;;;8.23;7.43;;;17.60;99.90;;;;;;6296739;28;20048;-73
2022/07/03 04:55:07;;;;;;;9.50;8.48;;;17.40;99.90;;;;;;6296136;28;20041;-73
2022/07/03 04:58:09;;;;;;;10.68;9.45;;;17.30;99.90;;;;;;6295615;28;20119;-72
2022/07/03 05:01:11;;;;;;;8.77;7.63;;;17.20;99.90;;;;;;6297099;28;20051;-73
2022/07/03 05:04:14;;;;;;;11.02;9.02;;;17.10;99.90;;;;;;6292036;28;20048;-73
2022/07/03 05:07:16;;;;;;;10.63;9.63;;;16.90;99.90;;;;;;6297091;28;20131;-73
2022/07/03 05:10:18;;;;;;;13.13;12.10;;;16.80;99.90;;;;;;6296846;28;20386;-73
2022/07/03 05:13:20;;;;;;;15.57;14.32;;;16.70;99.90;;;;;;6295878;28;20044;-73
2022/07/03 05:16:22;;;;;;;16.90;10.32;;;16.70;99.90;;;;;;6296610;28;20070;-73
2022/07/03 05:19:25;;;;;;;11.68;10.18;;;16.60;99.90;;;;;;6296563;28;20470;-73
2022/07/03 05:22:27;;;;;;;13.23;11.32;;;16.60;99.90;;;;;;6297183;28;20052;-72
2022/07/03 05:25:31;;;;;;;10.63;8.93;;;16.60;99.90;;;;;;6295227;28;20056;-72
2022/07/03 05:28:33;;;;;;;9.20;8.43;;;16.60;99.90;;;;;;6295614;28;20048;-72
2022/07/03 05:31:35;;;;;;;9.20;8.38;;;16.60;99.90;;;;;;6296814;28;20048;-72
2022/07/03 05:34:38;;;;;;;10.73;8.43;;;16.70;99.90;;;;;;6295837;28;20318;-73
2022/07/03 05:37:40;;;;;;;10.45;9.45;;;16.70;99.90;;;;;;6296722;28;20060;-72
2022/07/03 05:40:42;;;;;;;10.35;8.18;;;16.70;99.90;;;;;;6296553;28;20059;-72
2022/07/03 05:43:45;;;;;;;4.90;4.35;;;16.70;99.90;;;;;;6296596;28;20433;-72
2022/07/03 05:46:47;;;;;;;8.53;7.33;;;16.80;99.90;;;;;;6296209;28;20044;-72
2022/07/03 05:49:50;;;;;;;9.45;7.20;;;16.80;99.90;;;;;;6295880;28;20053;-72
2022/07/03 05:52:52;;;;;;;8.65;7.30;;;16.80;99.90;;;;;;6296253;28;20390;-72
2022/07/03 05:55:54;;;;;;;8.48;6.22;;;16.90;99.90;;;;;;6296128;28;20067;-72
2022/07/03 05:58:56;;;;;;;10.20;7.63;;;16.90;99.90;;;;;;6295229;28;20052;-72
2022/07/03 06:01:57;;;;;;;3.33;2.30;;;17.10;99.90;;;;;;6288804;28;20045;-72
2022/07/03 06:05:01;;;;;;;8.30;5.72;;;17.30;99.90;;;;;;6294645;28;20044;-72
2022/07/03 06:08:03;;;;;;;6.95;6.13;;;17.60;99.90;;;;;;6294530;28;20045;-73
2022/07/03 06:11:05;;;;;;;7.70;5.40;;;17.80;99.90;;;;;;6296113;28;20086;-73
2022/07/03 06:14:07;;;;;;;6.88;6.18;;;17.90;99.90;;;;;;6297115;28;20052;-73
2022/07/03 06:17:09;;;;;;;6.43;5.55;;;18.00;99.90;;;;;;6301043;28;20052;-72
2022/07/03 06:20:13;;;;;;;7.32;5.93;;;18.20;99.90;;;;;;6300074;28;20048;-72
2022/07/03 06:23:15;;;;;;;5.85;3.88;;;18.50;99.90;;;;;;6300851;28;20404;-72
2022/07/03 06:26:17;;;;;;;5.22;2.78;;;18.70;99.90;;;;;;6300679;28;20044;-73
2022/07/03 06:29:19;;;;;;;3.22;2.80;;;19.10;99.90;;;;;;6300999;28;20041;-73
2022/07/03 06:32:21;;;;;;;1.85;1.15;;;19.50;99.90;;;;;;6299108;28;20048;-73
2022/07/03 06:35:25;;;;;;;4.60;2.05;;;19.60;99.90;;;;;;6300601;28;20052;-73
2022/07/03 06:38:27;;;;;;;5.07;2.17;;;20.00;99.90;;;;;;6300634;28;20053;-73
2022/07/03 06:41:28;;;;;;;7.03;2.50;;;20.10;99.90;;;;;;6299560;28;20404;-73
2022/07/03 06:44:31;;;;;;;2.85;1.80;;;20.30;99.90;;;;;;6299290;28;20049;-73
2022/07/03 06:47:38;;;;;;;7.28;2.10;;;20.30;99.90;;;;;;6300253;28;20067;-73
2022/07/03 06:50:41;;;;;;;3.42;1.73;;;20.30;99.90;;;;;;6300057;28;20504;-73
2022/07/03 06:53:43;;;;;;;4.93;1.65;;;20.60;99.90;;;;;;6300724;28;20067;-73
2022/07/03 06:56:45;;;;;;;3.50;1.65;;;20.80;99.90;;;;;;6298891;28;20417;-73
2022/07/03 06:59:48;;;;;;;1.73;1.02;;;20.90;99.90;;;;;;6300052;28;20402;-73
2022/07/03 07:02:49;;;;;;;2.93;0.93;;;20.90;99.90;;;;;;6281757;28;20512;-73
2022/07/03 07:05:53;;;;;;;5.22;1.60;;;21.10;99.90;;;;;;6299045;28;20461;-73
2022/07/03 07:08:55;;;;;;;4.88;1.50;;;21.50;99.90;;;;;;6299338;28;20059;-74
2022/07/03 07:11:57;;;;;;;3.33;1.30;;;21.70;99.90;;;;;;6298832;28;20052;-73
2022/07/03 07:14:59;;;;;;;3.17;1.33;;;21.90;99.90;;;;;;6299595;28;20044;-73
2022/07/03 07:18:01;;;;;;;3.50;1.33;;;22.40;99.90;;;;;;6299694;28;20137;-73
2022/07/03 07:21:04;;;;;;;2.72;0.80;;;22.90;99.90;;;;;;6299889;28;20142;-73
2022/07/03 07:24:07;;;;;;;2.25;0.98;;;23.20;99.90;;;;;;6299417;28;20052;-73
2022/07/03 07:27:09;;;;;;;1.17;0.90;;;23.50;99.90;;;;;;6299347;28;20051;-73
2022/07/03 07:30:11;;;;;;;2.78;1.00;;;23.90;99.90;;;;;;6299713;28;20052;-74
2022/07/03 07:33:13;;;;;;;1.92;0.80;;;24.20;99.90;;;;;;6299064;28;20045;-73
2022/07/03 07:36:16;;;;;;;1.60;0.80;;;24.30;99.90;;;;;;6299314;28;20511;-73
2022/07/03 07:39:18;;;;;;;2.20;0.80;;;24.20;99.90;;;;;;6299664;28;20044;-73
2022/07/03 07:42:20;;;;;;;2.75;0.90;;;24.20;99.90;;;;;;6298182;28;20052;-74
2022/07/03 07:45:22;;;;;;;1.17;0.73;;;24.20;99.90;;;;;;6299502;28;20053;-74
2022/07/03 07:48:24;;;;;;;2.35;0.85;;;24.00;99.90;;;;;;6298551;28;20051;-74
2022/07/03 07:51:27;;;;;;;3.05;1.13;;;23.90;99.90;;;;;;6297739;28;20074;-73
2022/07/03 07:54:30;;;;;;;3.75;0.90;;;23.80;99.90;;;;;;6299560;28;20062;-74
2022/07/03 07:57:36;;;;;;;1.80;0.90;;;23.80;99.90;;;;;;6299249;28;20055;-74
2022/07/03 08:05:35;;;;;;;2.80;1.00;;;24.00;99.90;;;;;;6296772;28;20051;-74
2022/07/03 08:07:20;;;;;;;3.17;1.13;;;24.20;99.90;;;;;;6295300;28;20132;-74
2022/07/03 08:10:22;;;;;;;3.97;1.20;;;24.20;99.90;;;;;;6297216;28;20049;-74
2022/07/03 08:13:26;;;;;;;2.75;0.80;;;24.30;99.90;;;;;;6298561;28;20048;-74
2022/07/03 08:16:28;;;;;;;3.85;1.10;;;24.30;99.90;;;;;;6296812;28;20179;-74
2022/07/03 08:19:30;;;;;;;2.30;0.98;;;24.40;99.90;;;;;;6298356;28;20051;-74
2022/07/03 08:22:33;;;;;;;2.30;0.90;;;24.50;99.40;;;;;;6297106;28;20084;-74
2022/07/03 08:25:35;;;;;;;0.90;0.60;;;24.70;99.10;;;;;;6298156;28;20057;-74
2022/07/03 08:28:37;;;;;;;2.08;1.05;;;24.80;98.90;;;;;;6296760;28;20125;-74
2022/07/03 08:31:39;;;;;;;2.22;0.90;;;24.80;98.90;;;;;;6313064;28;20406;-74
2022/07/03 08:34:41;;;;;;;3.30;1.02;;;24.90;99.00;;;;;;6298040;28;20157;-74
2022/07/03 08:37:46;;;;;;;2.92;1.38;;;25.00;98.60;;;;;;6294783;28;20052;-74
2022/07/03 08:40:50;;;;;;;2.38;0.88;;;25.10;98.40;;;;;;6290129;28;20045;-74
2022/07/03 08:43:54;;;;;;;2.60;0.80;;;25.30;98.40;;;;;;6273292;28;20052;-74
2022/07/03 08:46:56;;;;;;;;;;;25.30;98.10;;;;;;6273132;28;20417;-74
2022/07/03 08:50:01;;;;;;;2.92;1.15;;;25.20;98.10;;;;;;6272638;28;20018;-74
2022/07/03 08:53:04;;;;;;;1.73;0.68;;;24.90;98.70;;;;;;6288008;28;20059;-74
2022/07/03 08:56:09;;;;;;;4.10;1.30;;;24.70;98.70;;;;;;6276524;28;20052;-74
2022/07/03 08:59:13;;;;;;;4.68;1.67;;;24.50;99.00;;;;;;6295809;28;20076;-73
2022/07/03 09:02:15;;;;;;;5.50;1.35;;;23.60;99.90;;;;;;6271594;28;20084;-74
2022/07/03 09:05:18;;;;;;;0.90;0.70;;;23.30;99.90;;;;;;6272841;28;20049;-74
2022/07/03 09:08:24;;;;;;;3.95;1.13;;;23.60;99.90;;;;;;6272241;28;20072;-74
2022/07/03 09:11:26;;;;;;;2.55;0.85;;;23.80;99.90;;;;;;6270784;28;20138;-74
2022/07/03 09:14:28;;;;;;;2.42;0.82;;;24.10;99.60;;;;;;6286162;28;20053;-74
2022/07/03 09:17:30;;;;;;;4.97;1.40;;;24.20;99.40;;;;;;6295729;28;20052;-74
2022/07/03 09:20:34;;;;;;;2.40;1.08;;;24.30;99.40;;;;;;6297175;28;20153;-74
2022/07/03 09:23:39;;;;;;;1.05;0.60;;;24.30;99.30;;;;;;6295731;28;20056;-73
2022/07/03 09:26:52;;;;;;;2.45;0.77;;;24.30;99.10;;;;;;6297158;28;20122;-74
2022/07/03 09:30:01;;;;;;;3.97;1.30;;;24.10;99.40;;;;;;6295493;28;20048;-74
2022/07/03 09:33:03;;;;;;;3.47;1.63;;;24.20;99.90;;;;;;6296789;28;20504;-74
2022/07/03 09:36:05;;;;;;;6.05;1.55;;;24.10;99.80;;;;;;6295503;28;20059;-73
2022/07/03 09:39:23;;;;;;;1.63;0.80;;;23.80;99.20;;;;;;6295967;28;20298;-74
2022/07/03 09:42:25;;;;;;;3.53;1.45;;;23.80;99.70;;;;;;6296596;28;20045;-74
2022/07/03 09:45:27;;;;;;;4.53;1.90;;;24.00;99.80;;;;;;6296634;28;20504;-73
2022/07/03 09:48:31;;;;;;;2.70;0.98;;;23.60;99.90;;;;;;6294943;28;20138;-74
2022/07/03 09:51:35;;;;;;;2.00;1.00;;;23.60;99.90;;;;;;6296693;28;20168;-74
2022/07/03 09:54:38;;;;;;;1.58;0.68;;;23.70;99.90;;;;;;6297159;28;20048;-74
2022/07/03 09:57:43;;;;;;;1.92;0.88;;;24.00;99.60;;;;;;6294624;28;20150;-74
2022/07/03 10:00:45;;;;;;;4.95;1.77;;;24.10;99.60;;;;;;6270570;28;20048;-74
2022/07/03 10:03:48;;;;;;;3.15;1.05;;;24.20;99.90;;;;;;6272434;28;20059;-74
2022/07/03 10:06:53;;;;;;;1.77;0.85;;;24.20;99.80;;;;;;6295373;28;20048;-74
2022/07/03 10:09:56;;;;;;;3.42;1.02;;;24.20;99.70;;;;;;6295997;28;20052;-73
2022/07/03 10:12:59;;;;;;;3.15;0.90;;;24.40;99.70;;;;;;6296063;28;20059;-73
2022/07/03 10:16:02;;;;;;;3.60;1.20;;;24.50;99.50;;;;;;6296537;28;20171;-74
2022/07/03 10:19:06;;;;;;;;;;;24.50;99.50;;;;;;6295482;28;20508;-73
2022/07/03 10:22:20;;;;;;;5.43;1.40;;;24.50;99.90;;;;;;6296274;28;19928;-74
2022/07/03 10:25:24;;;;;;;2.17;0.60;;;24.50;99.80;;;;;;6295708;28;20194;-74
2022/07/03 10:28:26;;;;;;;6.78;1.52;;;24.60;99.20;;;;;;6296105;28;20047;-74
2022/07/03 10:31:29;;;;;;;2.67;1.58;;;24.70;99.30;;;;;;6294905;28;20053;-74
2022/07/03 10:34:31;;;;;;;2.15;1.40;;;24.70;99.60;;;;;;6295244;28;20052;-74
2022/07/03 10:37:44;;;;;;;1.50;0.70;;;24.80;99.50;;;;;;6293871;28;20044;-74
2022/07/03 10:47:38;;;;;;;2.95;0.82;;;24.90;98.50;;;;;;6295769;28;20047;-74
2022/07/03 10:50:40;;;;;;;2.05;0.90;;;25.00;98.50;;;;;;6295699;28;20049;-74
2022/07/03 10:53:42;;;;;;;3.55;1.10;;;25.10;98.20;;;;;;6294331;28;20052;-73
2022/07/03 10:57:19;;;;;;;4.70;1.20;;;25.00;97.60;;;;;;6294302;28;20052;-74
2022/07/03 11:00:20;;;;;;;2.78;0.98;;;24.90;97.50;;;;;;6259761;28;20478;-73
2022/07/03 11:04:00;;;;;;;3.50;1.13;;;25.00;97.50;;;;;;6274452;28;20053;-73
2022/07/03 11:07:11;;;;;;;1.15;0.75;;;25.00;97.20;;;;;;6277055;28;20045;-73
2022/07/03 11:10:40;;;;;;;4.53;1.00;;;25.10;97.80;;;;;;6300010;28;20489;-73
2022/07/03 11:14:20;;;;;;;4.32;0.82;;;25.30;97.20;;;;;;6299972;28;20048;-73
2022/07/03 11:17:22;;;;;;;2.72;0.60;;;25.40;96.70;;;;;;6299793;28;20052;-73
2022/07/03 11:20:26;;;;;;;2.63;0.63;;;25.50;97.10;;;;;;6300028;28;20079;-73
2022/07/03 11:23:34;;;;;;;3.25;0.70;;;25.50;97.10;;;;;;6299782;28;20097;-74
2022/07/03 11:26:36;;;;;;;2.28;0.50;;;25.50;96.80;;;;;;6300140;28;20053;-73
2022/07/03 11:29:39;;;;;;;3.08;0.60;;;25.50;95.90;;;;;;6282735;28;20048;-73
2022/07/03 11:32:46;;;;;;;2.97;0.90;;;25.60;96.60;;;;;;6298160;28;20049;-73
2022/07/03 11:35:51;;;;;;;2.85;0.82;;;25.60;96.40;;;;;;6299405;28;20528;-73
2022/07/03 11:39:13;;;;;;;1.05;0.50;;;25.70;96.70;;;;;;6292702;28;20052;-73
2022/07/03 11:42:15;;;;;;;1.83;0.50;;;25.80;95.80;;;;;;6298211;28;20060;-73
2022/07/03 11:45:18;;;;;;;1.85;0.77;;;25.80;95.60;;;;;;6298080;28;20082;-73
2022/07/03 11:48:21;;;;;;;;;;;25.80;95.60;;;;;;6299476;28;20052;-73
2022/07/03 11:51:23;;;;;;;2.65;0.70;;;25.70;95.70;;;;;;6299233;28;19924;-72
2022/07/03 11:54:25;;;;;;;2.00;0.55;;;25.60;95.80;;;;;;6299235;28;20052;-73
2022/07/03 11:57:27;;;;;;;1.52;0.60;;;25.70;95.50;;;;;;6298835;28;20049;-72
2022/07/03 12:00:31;;;;;;;1.13;0.50;;;25.60;94.60;;;;;;6297965;28;20124;-73
2022/07/03 12:03:33;;;;;;;2.15;0.60;;;25.60;95.50;;;;;;6299010;28;20044;-73
2022/07/03 12:06:37;;;;;;;1.35;0.40;;;25.70;95.30;;;;;;6298632;28;20049;-71
2022/07/03 12:09:39;;;;;;;1.58;0.52;;;25.80;95.10;;;;;;6297749;28;20052;-73
2022/07/03 12:12:41;;;;;;;1.35;0.50;;;25.80;94.30;;;;;;6297363;28;20063;-73
2022/07/03 12:15:44;;;;;;;1.30;0.50;;;25.80;94.60;;;;;;6298901;28;20049;-73
2022/07/03 12:18:48;;;;;;;0.88;0.45;;;25.80;94.30;;;;;;6298323;28;20502;-73
2022/07/03 12:21:53;;;;;;;0.93;0.40;;;25.70;94.60;;;;;;6298318;28;20052;-73
2022/07/03 12:25:00;;;;;;;1.13;0.50;;;25.80;94.90;;;;;;6298445;28;20059;-73
2022/07/03 12:28:02;;;;;;;0.88;0.50;;;26.00;95.10;;;;;;6298105;28;20179;-73
2022/07/03 12:31:06;;;;;;;2.45;0.60;;;26.10;94.90;;;;;;6298263;28;20041;-72
2022/07/03 12:34:08;;;;;;;;;;;26.20;94.40;;;;;;6298638;28;20052;-72
2022/07/03 12:37:10;;;;;;;3.20;0.65;;;26.20;94.50;;;;;;6297638;28;19920;-73
2022/07/03 12:40:13;;;;;;;0.73;0.40;;;26.10;94.30;;;;;;6296821;28;20040;-73
2022/07/03 12:43:15;;;;;;;1.02;0.45;;;26.10;94.30;;;;;;6296718;28;20056;-72
2022/07/03 12:46:21;;;;;;;1.63;0.55;;;26.10;93.80;;;;;;6296804;28;20515;-73
2022/07/03 12:49:23;;;;;;;0.82;0.40;;;26.10;94.40;;;;;;6297462;28;20048;-72
2022/07/03 12:52:25;;;;;;;2.72;0.57;;;26.20;94.50;;;;;;6296704;28;20052;-73
2022/07/03 12:55:28;;;;;;;1.48;0.52;;;26.30;94.00;;;;;;6296037;28;20041;-72
2022/07/03 13:02:04;;;;;;;1.75;0.50;;;26.20;93.50;;;;;;6297372;28;20045;-72
2022/07/03 13:05:16;;;;;;;2.25;0.40;;;26.30;93.60;;;;;;6297308;28;20052;-72
2022/07/03 13:08:18;;;;;;;0.60;0.50;;;26.30;94.00;;;;;;6297457;28;20083;-73
2022/07/03 13:11:27;;;;;;;2.05;0.57;;;26.30;93.50;;;;;;6297686;28;20055;-72
2022/07/03 13:14:29;;;;;;;3.33;0.57;;;26.20;93.60;;;;;;6297162;28;20052;-72
2022/07/03 13:17:56;;;;;;;2.55;0.70;;;26.00;94.00;;;;;;6295916;28;20060;-72
2022/07/03 13:20:58;;;;;;;1.55;0.60;;;25.60;94.20;;;;;;6297374;28;20066;-72
2022/07/03 13:24:00;;;;;;;2.03;0.82;;;25.60;94.10;;;;;;6295283;28;20542;-71
2022/07/03 13:27:02;;;;;;;4.00;1.10;;;25.60;95.70;;;;;;6296917;28;20040;-72
2022/07/03 13:30:04;;;;;;;3.30;1.20;;;25.50;96.90;;;;;;6283238;28;20569;-72
2022/07/03 13:33:09;;;;;;;4.45;1.35;;;25.20;97.40;;;;;;6272372;28;20049;-72
2022/07/03 13:36:11;;;;;;;5.07;1.33;;;24.60;97.50;;;;;;6270880;28;20402;-73
2022/07/03 13:39:13;;;;;;;4.65;1.23;;;24.40;98.70;;;;;;6271923;28;20048;-73
2022/07/03 13:42:15;;;;;;;4.60;1.00;;;23.90;99.00;;;;;;6272626;28;20060;-71
2022/07/03 13:45:17;;;;;;;7.97;2.38;;;23.80;99.90;;;;;;6276853;28;20051;-72
2022/07/03 13:48:20;;;;;;;10.57;2.13;;;23.60;99.90;;;;;;6296160;28;20071;-72
2022/07/03 13:51:22;;;;;;;8.02;2.40;;;23.00;99.90;;;;;;6295579;28;20473;-72
2022/07/03 13:54:24;;;;;;;8.35;1.90;;;23.10;99.90;;;;;;6287837;28;20147;-72
2022/07/03 13:57:26;;;;;;;9.35;2.35;;;22.90;99.90;;;;;;6269925;28;20060;-72
2022/07/03 14:00:28;;;;;;;8.45;2.55;;;22.80;99.90;;;;;;6270259;28;20056;-72
2022/07/03 14:03:31;;;;;;;8.02;2.42;;;22.50;99.90;;;;;;6285461;28;20048;-72
2022/07/03 14:06:33;;;;;;;9.95;3.17;;;22.60;99.90;;;;;;6295160;28;20083;-72
2022/07/03 14:09:35;;;;;;;7.60;2.03;;;22.40;99.90;;;;;;6294785;28;20482;-72
2022/07/03 14:12:37;;;;;;;8.23;2.10;;;22.40;99.90;;;;;;6296471;28;20048;-72
2022/07/03 14:15:39;;;;;;;8.48;1.70;;;21.90;99.90;;;;;;6295771;28;20055;-72
2022/07/03 14:18:42;;;;;;;4.90;1.33;;;21.50;99.90;;;;;;6294927;28;20382;-72
2022/07/03 14:21:45;;;;;;;7.57;1.60;;;21.40;99.90;;;;;;6287016;28;20417;-72
2022/07/03 14:24:47;;;;;;;6.05;1.60;;;21.40;99.90;;;;;;6285248;28;20057;-72
2022/07/03 14:34:34;;;;;;;6.53;1.58;;;21.30;99.90;;;;;;6310388;28;20129;-72
2022/07/03 14:37:36;;;;;;;4.13;1.40;;;21.00;99.90;;;;;;6299094;28;20052;-72
2022/07/03 14:40:38;;;;;;;3.85;1.40;;;21.00;99.90;;;;;;6300649;28;20052;-72
2022/07/03 14:43:40;;;;;;;5.72;1.48;;;21.10;99.90;;;;;;6300965;28;20044;-72
2022/07/03 14:46:42;;;;;;;6.07;1.50;;;21.30;99.90;;;;;;6300235;28;20405;-73
2022/07/03 14:49:46;;;;;;;6.32;2.08;;;21.40;99.90;;;;;;6300367;28;20044;-72
2022/07/03 14:52:47;;;;;;;5.80;1.80;;;21.20;99.90;;;;;;6300085;28;20051;-72
2022/07/03 14:55:52;;;;;;;3.70;1.27;;;20.90;99.90;;;;;;6300789;28;20067;-72
2022/07/03 14:58:54;;;;;;;5.05;1.40;;;20.90;99.90;;;;;;6298701;28;20045;-74
2022/07/03 15:01:58;;;;;;;2.90;1.00;;;21.40;99.90;;;;;;6300178;28;20063;-73
2022/07/03 15:05:08;;;;;;;5.35;1.92;;;22.20;99.90;;;;;;6300177;28;20049;-73
2022/07/03 15:08:28;;;;;;;3.97;1.70;;;22.50;99.90;;;;;;6299348;28;20497;-73
2022/07/03 15:14:55;;;;;;;2.85;0.70;;;20.60;99.90;;;;;;6299880;28;20045;-73
2022/07/03 15:17:59;;;;;;;3.37;0.90;;;19.20;99.90;;;;;;6298959;28;20048;-73
2022/07/03 15:21:03;;;;;;;2.70;1.25;;;18.60;99.90;;;;;;6298039;28;20051;-73
2022/07/03 15:24:08;;;;;;;3.08;1.45;;;18.40;99.90;;;;;;6299521;28;20079;-73
2022/07/03 15:27:10;;;;;;;4.57;1.75;;;18.00;99.90;;;;;;6299444;28;20501;-72
2022/07/03 15:30:12;;;;;;;3.65;1.92;;;17.70;99.90;;;;;;6298646;28;20404;-73
2022/07/03 15:33:14;;;;;;;5.70;2.30;;;17.40;99.90;;;;;;6299778;28;20060;-72
2022/07/03 15:36:20;;;;;;;3.78;2.25;;;17.40;99.90;;;;;;6298835;28;20062;-72
2022/07/03 15:39:31;;;;;;;4.65;2.15;;;17.40;99.90;;;;;;6299311;28;20482;-73
2022/07/03 15:42:49;;;;;;;2.78;2.58;;;17.40;99.90;;;;;;6298364;28;20512;-72
2022/07/03 15:46:10;;;;;;;3.53;3.20;;;17.60;99.90;;;;;;6299182;28;20045;-72
2022/07/03 15:49:25;;;;;;;4.50;3.35;;;18.00;99.90;;;;;;6299159;28;20056;-73
2022/07/03 15:52:30;;;;;;;3.75;2.35;;;18.20;99.90;;;;;;6299324;28;20127;-72
2022/07/03 15:55:38;;;;;;;3.67;2.28;;;18.20;99.90;;;;;;6297880;28;20056;-73
2022/07/03 15:58:46;;;;;;;5.68;3.10;;;18.50;99.90;;;;;;6297982;28;20509;-72
2022/07/03 16:05:17;;;;;;;3.42;1.55;;;18.90;99.90;;;;;;6299234;28;20057;-72
2022/07/03 16:08:22;;;;;;;3.20;1.67;;;18.90;99.90;;;;;;6297306;28;20049;-72
2022/07/03 16:11:27;;;;;;;2.17;1.60;;;18.80;99.90;;;;;;6297514;28;20056;-73
2022/07/03 16:14:40;;;;;;;2.22;1.33;;;19.10;99.90;;;;;;6298878;28;20047;-73
2022/07/03 16:17:44;;;;;;;4.00;3.33;;;19.00;99.90;;;;;;6296682;28;20155;-70
2022/07/03 16:20:46;;;;;;;3.03;1.67;;;18.60;99.90;;;;;;6294343;28;20413;-71
2022/07/03 16:23:50;;;;;;;3.35;1.35;;;18.50;99.90;;;;;;6298062;28;20052;-73
2022/07/03 16:26:53;;;;;;;2.20;1.17;;;18.50;99.90;;;;;;6298591;28;20102;-72